Time;durP1;ratioP1;P1;durP2;ratioP2;P2;SDS_P1;SDS_P2;PMS_P1;PMS_P2;Temp;Humidity;BMP_temperature;BMP_pressure;BME280_temperature;BME280_humidity;BME280_pressure;Samples;Min_cycle;Max_cycle;Signal;HPM_P1;HPM_P2
2022/06/23 00:04:53;;;;;;;2.80;1.70;;;;;;;13.23;97.62;98628.56;1855152;76;27991;-81
2022/06/23 00:08:04;;;;;;;7.87;1.75;;;;;;;13.13;97.56;98630.47;1748745;82;21231;-81
2022/06/23 00:11:08;;;;;;;;;;;;;;;13.09;97.83;98630.63;1746187;81;21176;-81
2022/06/23 00:14:21;;;;;;;6.55;1.57;;;;;;;13.04;98.19;98625.00;1749155;81;20642;-81
2022/06/23 00:17:37;;;;;;;3.47;2.12;;;;;;;13.00;98.72;98621.05;1717457;83;21196;-81
2022/06/23 00:20:49;;;;;;;2.25;1.60;;;;;;;12.98;99.27;98617.14;1733385;82;21163;-81
2022/06/23 00:23:59;;;;;;;3.17;2.00;;;;;;;13.00;99.67;98612.81;1733255;82;21278;-80
2022/06/23 00:27:04;;;;;;;8.03;1.90;;;;;;;13.01;99.85;98614.48;1718343;83;21162;-80
2022/06/23 00:30:15;;;;;;;3.85;2.00;;;;;;;12.99;99.70;98613.34;1752660;81;21173;-80
2022/06/23 00:33:29;;;;;;;2.47;1.80;;;;;;;12.97;99.60;98605.03;1763533;81;21184;-80
2022/06/23 00:36:43;;;;;;;3.10;1.82;;;;;;;12.95;100.00;98609.93;1762400;81;21518;-80
2022/06/23 00:39:52;;;;;;;5.00;1.90;;;;;;;12.97;100.00;98620.95;1763740;81;21188;-80
2022/06/23 00:43:09;;;;;;;4.33;1.60;;;;;;;12.97;100.00;98617.38;1764694;81;21212;-80
2022/06/23 00:46:24;;;;;;;4.37;1.67;;;;;;;12.95;100.00;98619.00;1782944;80;21478;-80
2022/06/23 00:49:56;;;;;;;4.10;1.90;;;;;;;12.93;100.00;98622.49;1754068;81;21225;-80
2022/06/23 00:53:23;;;;;;;2.42;2.00;;;;;;;12.91;100.00;98624.64;1763014;81;21758;-80
2022/06/23 00:56:42;;;;;;;4.55;2.00;;;;;;;12.93;100.00;98618.38;1763763;81;21604;-81
2022/06/23 01:00:08;;;;;;;5.37;2.30;;;;;;;12.96;100.00;98620.66;1715707;82;21213;-81
2022/06/23 01:03:23;;;;;;;3.72;2.27;;;;;;;13.00;100.00;98623.25;1710734;84;21165;-81
2022/06/23 01:06:39;;;;;;;2.70;2.22;;;;;;;13.06;100.00;98621.47;1693844;83;22034;-81
2022/06/23 01:09:58;;;;;;;2.40;2.20;;;;;;;13.11;100.00;98624.89;1691338;84;21204;-81
2022/06/23 01:13:15;;;;;;;2.47;2.27;;;;;;;13.16;100.00;98623.66;1710206;83;21237;-81
2022/06/23 01:16:31;;;;;;;2.92;2.05;;;;;;;13.19;100.00;98636.92;1719475;83;22744;-81
2022/06/23 01:20:08;;;;;;;3.33;2.33;;;;;;;13.24;100.00;98633.80;1718917;83;21225;-79
2022/06/23 01:23:29;;;;;;;3.58;2.60;;;;;;;13.26;100.00;98629.44;1702733;83;21193;-81
2022/06/23 01:27:04;;;;;;;2.72;2.20;;;;;;;13.26;100.00;98634.39;1691146;85;21185;-81
2022/06/23 01:30:15;;;;;;;4.12;2.52;;;;;;;13.29;100.00;98628.98;1689457;83;21762;-81
2022/06/23 01:33:51;;;;;;;3.35;2.17;;;;;;;13.32;100.00;98626.31;1670618;83;21776;-81
2022/06/23 01:37:10;;;;;;;3.65;2.47;;;;;;;13.36;100.00;98627.49;1690799;85;21212;-81
2022/06/23 01:40:38;;;;;;;5.00;2.83;;;;;;;13.35;100.00;98625.29;1690912;85;21248;-81
2022/06/23 01:43:59;;;;;;;3.37;2.45;;;;;;;13.35;100.00;98621.17;1698722;83;21193;-81
2022/06/23 01:47:03;;;;;;;3.87;2.55;;;;;;;13.36;100.00;98625.61;1705700;83;21189;-81
2022/06/23 01:50:19;;;;;;;3.62;2.80;;;;;;;13.35;100.00;98622.55;1693751;83;21232;-81
2022/06/23 01:53:33;;;;;;;3.92;3.00;;;;;;;13.34;100.00;98627.73;1710856;83;21633;-83
2022/06/23 01:57:07;;;;;;;7.10;2.95;;;;;;;13.36;100.00;98632.48;1709390;82;21319;-81
2022/06/23 02:00:28;;;;;;;9.98;3.27;;;;;;;13.37;100.00;98630.03;1692570;83;21235;-80
2022/06/23 02:03:40;;;;;;;6.78;3.00;;;;;;;13.39;100.00;98635.27;1691050;85;21188;-80
2022/06/23 02:07:05;;;;;;;6.50;2.90;;;;;;;13.41;100.00;98633.98;1708344;84;21245;-80
2022/06/23 02:10:29;;;;;;;4.08;3.22;;;;;;;13.44;100.00;98629.91;1711013;82;21239;-80
2022/06/23 02:13:42;;;;;;;3.90;3.17;;;;;;;13.44;100.00;98640.36;1710944;82;21752;-80
2022/06/23 02:16:51;;;;;;;6.25;3.47;;;;;;;13.44;100.00;98638.98;1710801;84;21261;-81
2022/06/23 02:20:03;;;;;;;4.58;2.95;;;;;;;13.48;100.00;98636.61;1709205;84;21254;-80
2022/06/23 02:23:34;;;;;;;3.37;3.08;;;;;;;13.50;100.00;98644.93;1709060;84;21187;-80
2022/06/23 02:26:47;;;;;;;10.08;3.90;;;;;;;13.52;100.00;98641.39;1725209;82;22230;-80
2022/06/23 02:30:12;;;;;;;6.95;4.37;;;;;;;13.57;100.00;98636.57;1739801;82;21173;-80
2022/06/23 02:33:39;;;;;;;9.65;4.22;;;;;;;13.62;100.00;98646.31;1739793;82;21189;-80
2022/06/23 02:37:07;;;;;;;7.45;4.08;;;;;;;13.66;100.00;98641.19;1738793;82;21817;-81
2022/06/23 02:40:14;;;;;;;5.90;4.10;;;;;;;13.70;100.00;98647.34;1736104;82;21243;-80
2022/06/23 02:43:44;;;;;;;7.12;4.10;;;;;;;13.73;100.00;98652.34;1740165;82;21219;-80
2022/06/23 02:47:16;;;;;;;9.65;3.62;;;;;;;13.78;100.00;98650.27;1740394;82;21208;-81
2022/06/23 02:50:45;;;;;;;6.85;3.65;;;;;;;13.81;100.00;98650.63;1739984;82;21211;-79
2022/06/23 02:54:18;;;;;;;5.15;3.77;;;;;;;13.86;100.00;98649.92;1740212;82;21180;-80
2022/06/23 02:57:47;;;;;;;4.85;4.00;;;;;;;13.91;100.00;98644.55;1740320;82;21227;-80
2022/06/23 03:01:07;;;;;;;5.00;4.50;;;;;;;14.00;99.85;98646.41;1702633;84;21216;-80
2022/06/23 03:04:29;;;;;;;6.70;4.97;;;;;;;14.10;99.78;98648.55;1704914;84;21169;-80
2022/06/23 03:07:39;;;;;;;5.83;4.97;;;;;;;14.23;99.55;98660.69;1691604;84;21754;-80
2022/06/23 03:11:04;;;;;;;9.40;5.05;;;;;;;14.31;99.49;98661.70;1715363;82;21192;-80
2022/06/23 03:14:10;;;;;;;7.00;5.62;;;;;;;14.39;99.41;98665.44;1719893;82;21240;-81
2022/06/23 03:17:26;;;;;;;7.37;6.37;;;;;;;14.45;98.49;98663.66;1735583;82;21240;-80
2022/06/23 03:20:48;;;;;;;15.83;10.13;;;;;;;14.48;98.00;98659.07;1735532;82;21224;-80
2022/06/23 03:24:07;;;;;;;21.27;12.98;;;;;;;14.49;97.04;98660.22;1735507;82;21176;-80
2022/06/23 03:27:29;;;;;;;21.77;15.40;;;;;;;14.51;96.49;98660.80;1716657;82;21208;-81
2022/06/23 03:30:59;;;;;;;36.53;18.12;;;;;;;14.61;96.12;98668.98;1706122;84;21207;-80
2022/06/23 03:34:15;;;;;;;30.30;18.98;;;;;;;14.87;95.25;98669.83;1706971;82;21805;-80
2022/06/23 03:37:34;;;;;;;28.87;18.42;;;;;;;15.10;93.50;98668.89;1734311;82;21181;-80
2022/06/23 03:44:41;;;;;;;21.30;17.65;;;;;;;15.49;89.05;98679.56;1735489;82;21188;-80
2022/06/23 03:48:02;;;;;;;19.07;13.98;;;;;;;15.44;87.63;98680.85;1714297;82;21497;-80
2022/06/23 03:51:21;;;;;;;19.42;14.07;;;;;;;15.27;87.14;98693.73;1688057;85;21233;-81
2022/06/23 03:54:30;;;;;;;22.37;13.70;;;;;;;15.07;88.22;98695.55;1677132;85;21248;-81
2022/06/23 03:57:43;;;;;;;20.95;14.68;;;;;;;14.90;88.80;98697.39;1687564;85;21274;-80
2022/06/23 04:01:07;;;;;;;20.02;11.73;;;;;;;14.75;89.85;98700.66;1675865;85;21205;-81
2022/06/23 04:04:26;;;;;;;11.48;6.90;;;;;;;14.66;90.40;98697.98;1686479;85;21206;-81
2022/06/23 04:07:43;;;;;;;7.35;6.60;;;;;;;14.64;89.91;98702.91;1673189;85;21229;-80
2022/06/23 04:10:51;;;;;;;9.10;6.45;;;;;;;14.61;89.13;98706.97;1738187;82;21193;-80
2022/06/23 04:13:57;;;;;;;9.83;5.97;;;;;;;14.59;88.57;98708.30;1764851;81;21713;-80
2022/06/23 04:17:13;;;;;;;8.45;5.97;;;;;;;14.52;88.87;98706.48;1767738;81;21499;-80
2022/06/23 04:20:29;;;;;;;8.08;6.55;;;;;;;14.52;88.80;98711.99;1762091;81;21795;-80
2022/06/23 04:23:45;;;;;;;10.08;5.58;;;;;;;14.48;88.76;98710.80;1744060;81;21770;-80
2022/06/23 04:26:53;;;;;;;7.95;4.62;;;;;;;14.52;89.02;98720.25;1738021;82;21209;-81
2022/06/23 04:30:03;;;;;;;8.15;5.30;;;;;;;14.59;87.95;98720.68;1738756;81;21207;-80
2022/06/23 04:33:12;;;;;;;5.53;4.92;;;;;;;14.61;87.09;98720.72;1738672;82;21207;-81
2022/06/23 04:36:28;;;;;;;8.23;4.85;;;;;;;14.73;87.34;98722.09;1737701;82;21572;-81
2022/06/23 04:39:49;;;;;;;8.53;4.50;;;;;;;14.86;86.90;98723.73;1738677;82;21752;-82
2022/06/23 04:43:02;;;;;;;5.45;4.33;;;;;;;14.98;86.38;98725.38;1738486;82;21191;-81
2022/06/23 04:46:11;;;;;;;7.47;4.17;;;;;;;15.19;85.59;98729.92;1738468;82;21233;-81
2022/06/23 04:49:26;;;;;;;3.70;3.30;;;;;;;15.43;84.36;98731.53;1705247;83;21806;-81
2022/06/23 04:52:48;;;;;;;6.87;3.83;;;;;;;15.69;82.31;98731.48;1702079;84;21251;-82
2022/06/23 04:55:55;;;;;;;5.97;3.70;;;;;;;16.01;81.51;98726.27;1738392;82;21197;-81
2022/06/23 04:59:29;;;;;;;8.03;3.58;;;;;;;16.38;79.88;98734.03;1690048;84;21243;-81
2022/06/23 05:02:46;;;;;;;3.52;3.08;;;;;;;16.68;77.35;98748.83;1743966;81;21208;-80
2022/06/23 05:05:52;;;;;;;6.62;3.27;;;;;;;16.71;74.74;98742.81;1744101;81;21761;-81
2022/06/23 05:09:01;;;;;;;2.62;2.33;;;;;;;16.55;74.39;98745.04;1738658;81;21268;-81
2022/06/23 05:12:26;;;;;;;4.13;2.57;;;;;;;16.57;75.27;98750.61;1730305;81;21221;-81
2022/06/23 05:15:44;;;;;;;4.65;3.30;;;;;;;16.65;74.61;98754.02;1702828;84;21239;-81
2022/06/23 05:18:53;;;;;;;5.33;4.62;;;;;;;16.60;73.50;98761.13;1737103;82;21229;-81
2022/06/23 05:22:01;;;;;;;8.25;5.22;;;;;;;16.53;72.91;98763.24;1703329;84;21260;-83
2022/06/23 05:25:19;;;;;;;5.50;4.70;;;;;;;16.59;72.90;98750.34;1738328;82;21186;-82
2022/06/23 05:28:31;;;;;;;6.50;5.22;;;;;;;16.79;72.52;98756.19;1706203;82;21224;-83
2022/06/23 05:31:41;;;;;;;5.28;4.75;;;;;;;17.03;71.70;98754.06;1767658;81;21186;-81
2022/06/23 05:34:59;;;;;;;5.87;4.42;;;;;;;17.28;69.65;98754.92;1767725;81;21170;-81
2022/06/23 05:38:11;;;;;;;8.18;5.70;;;;;;;17.42;69.04;98758.68;1754443;80;21221;-81
2022/06/23 05:41:30;;;;;;;6.42;5.12;;;;;;;17.55;68.49;98755.48;1767573;81;21186;-81
2022/06/23 05:44:40;;;;;;;6.97;4.47;;;;;;;17.65;67.33;98754.80;1768982;81;21174;-81
2022/06/23 05:47:46;;;;;;;6.53;4.78;;;;;;;17.72;67.40;98758.17;1769994;81;21295;-81
2022/06/23 05:51:15;;;;;;;7.35;4.97;;;;;;;17.62;67.22;98753.37;1767756;81;21190;-81
2022/06/23 05:54:37;;;;;;;7.60;4.83;;;;;;;17.60;67.85;98759.72;1767961;81;21208;-81
2022/06/23 05:58:12;;;;;;;9.25;5.70;;;;;;;17.65;67.35;98763.09;1768727;81;21217;-81
2022/06/23 06:01:25;;;;;;;5.45;4.72;;;;;;;17.78;66.66;98759.36;1769097;81;21228;-81
2022/06/23 06:04:55;;;;;;;8.68;5.33;;;;;;;17.90;65.89;98752.31;1767546;81;21236;-81
2022/06/23 06:08:01;;;;;;;7.10;4.90;;;;;;;17.99;66.03;98749.35;1768862;81;21232;-81
2022/06/23 06:11:08;;;;;;;6.37;4.87;;;;;;;18.08;64.97;98754.70;1782135;80;21522;-81
2022/06/23 06:14:13;;;;;;;6.62;5.50;;;;;;;18.04;65.25;98755.48;1766910;80;21190;-81
2022/06/23 06:17:29;;;;;;;8.70;6.40;;;;;;;17.96;65.11;98755.95;1751714;82;21198;-81
2022/06/23 06:20:34;;;;;;;7.53;6.30;;;;;;;17.96;65.09;98759.55;1751189;82;21630;-81
2022/06/23 06:24:06;;;;;;;9.48;7.37;;;;;;;17.98;65.10;98746.86;1751220;82;21779;-81
2022/06/23 06:27:14;;;;;;;8.65;6.75;;;;;;;18.06;65.33;98748.58;1751634;82;21187;-81
2022/06/23 06:30:23;;;;;;;8.95;7.53;;;;;;;18.17;64.79;98748.69;1762025;80;21160;-81
2022/06/23 06:33:45;;;;;;;10.63;6.90;;;;;;;18.27;63.74;98762.61;1785476;80;21782;-80
2022/06/23 06:36:55;;;;;;;10.90;7.10;;;;;;;18.31;63.15;98752.69;1766697;80;21235;-81
2022/06/23 06:40:03;;;;;;;8.38;6.25;;;;;;;18.48;62.41;98755.28;1785744;80;21739;-81
2022/06/23 06:43:16;;;;;;;6.12;5.53;;;;;;;18.69;61.58;98765.45;1785792;80;21148;-81
2022/06/23 06:46:21;;;;;;;9.55;6.83;;;;;;;18.93;60.58;98758.95;1782193;80;21180;-81
2022/06/23 06:49:29;;;;;;;7.33;6.10;;;;;;;19.13;61.22;98767.36;1780635;80;21263;-81
2022/06/23 06:52:36;;;;;;;6.67;5.97;;;;;;;19.25;60.95;98765.77;1782208;80;21720;-81
2022/06/23 06:55:46;;;;;;;6.12;4.35;;;;;;;19.46;59.98;98756.97;1781329;80;21209;-81
2022/06/23 06:58:56;;;;;;;6.95;4.80;;;;;;;19.57;58.43;98764.23;1782869;80;21204;-82
2022/06/23 07:02:23;;;;;;;5.55;4.80;;;;;;;19.47;57.61;98768.33;1782637;80;21244;-81
2022/06/23 07:05:53;;;;;;;5.47;4.97;;;;;;;19.33;58.85;98767.17;1782526;80;21228;-81
2022/06/23 07:09:22;;;;;;;6.35;4.65;;;;;;;19.18;59.19;98776.25;1782345;80;21251;-81
2022/06/23 07:12:39;;;;;;;4.72;4.03;;;;;;;19.32;58.41;98771.05;1777899;80;21639;-81
2022/06/23 07:15:55;;;;;;;8.28;4.75;;;;;;;19.73;57.18;98774.02;1776332;80;21201;-81
2022/06/23 07:19:05;;;;;;;6.20;3.90;;;;;;;20.06;55.00;98773.52;1777072;80;21165;-81
2022/06/23 07:22:24;;;;;;;7.65;4.70;;;;;;;20.41;53.87;98779.64;1775907;80;21189;-81
2022/06/23 07:25:37;;;;;;;5.50;4.25;;;;;;;20.70;53.34;98785.21;1757131;80;21232;-81
2022/06/23 07:28:50;;;;;;;5.87;4.30;;;;;;;20.64;52.35;98783.83;1767673;80;22433;-81
2022/06/23 07:32:28;;;;;;;6.30;3.62;;;;;;;20.70;53.20;98790.77;1746977;82;21503;-81
2022/06/23 07:35:39;;;;;;;6.47;3.92;;;;;;;20.89;51.80;98791.88;1746963;82;21189;-81
2022/06/23 07:38:58;;;;;;;4.67;3.75;;;;;;;21.12;50.94;98798.75;1746272;82;21485;-81
2022/06/23 07:42:09;;;;;;;7.45;3.55;;;;;;;21.41;49.97;98805.95;1745753;82;21200;-81
2022/06/23 07:45:30;;;;;;;6.12;3.80;;;;;;;21.57;49.41;98815.89;1773812;80;21220;-81
2022/06/23 07:48:38;;;;;;;5.75;3.60;;;;;;;21.44;48.92;98823.44;1750336;80;21314;-81
2022/06/23 07:51:45;;;;;;;4.85;3.40;;;;;;;21.25;48.99;98819.58;1752647;80;21300;-81
2022/06/23 07:54:44;;;;;;;3.33;2.83;;;;;;;21.33;49.06;98814.31;1760339;80;21182;-81
2022/06/23 07:57:50;;;;;;;4.60;3.15;;;;;;;21.57;49.04;98823.41;1753791;80;21204;-81
2022/06/23 08:00:58;;;;;;;4.15;2.65;;;;;;;21.64;48.18;98826.70;1722663;82;21183;-81
2022/06/23 08:04:52;;;;;;;3.50;2.58;;;;;;;21.63;48.61;98834.22;1700147;83;21171;-81
2022/06/23 08:07:55;;;;;;;2.33;1.95;;;;;;;21.67;47.96;98826.14;1679150;84;21396;-81
2022/06/23 08:14:42;;;;;;;2.25;2.00;;;;;;;21.52;48.34;98828.43;1717193;82;21182;-81
2022/06/23 08:17:50;;;;;;;4.12;3.22;;;;;;;21.42;48.11;98837.64;1736446;82;21917;-81
2022/06/23 08:20:53;;;;;;;5.00;3.60;;;;;;;21.33;48.89;98841.29;1736779;82;21217;-82
2022/06/23 08:24:01;;;;;;;5.15;3.60;;;;;;;21.13;49.42;98840.75;1738378;82;21529;-82
2022/06/23 08:27:01;;;;;;;6.08;3.10;;;;;;;20.97;49.63;98849.66;1735740;82;21205;-82
2022/06/23 08:29:54;;;;;;;5.53;3.60;;;;;;;20.81;49.87;98854.96;1719805;82;21167;-81
2022/06/23 08:33:02;;;;;;;4.97;3.50;;;;;;;20.80;50.67;98857.47;1719096;83;21363;-82
2022/06/23 08:36:55;;;;;;;6.12;3.20;;;;;;;20.79;50.84;98861.34;1709047;82;21232;-81
2022/06/23 08:40:11;;;;;;;4.67;3.20;;;;;;;20.74;50.47;98867.72;1712397;84;21167;-81
2022/06/23 08:43:35;;;;;;;4.03;3.02;;;;;;;20.73;50.61;98874.95;1710401;84;21257;-82
2022/06/23 08:46:47;;;;;;;3.10;1.98;;;;;;;20.81;50.79;98873.02;1712409;82;21205;-80
2022/06/23 08:50:00;;;;;;;2.42;1.85;;;;;;;21.08;50.17;98872.73;1716473;82;21804;-82
2022/06/23 08:53:04;;;;;;;3.58;2.10;;;;;;;21.26;49.24;98862.95;1715705;82;21196;-81
2022/06/23 08:56:20;;;;;;;4.30;1.57;;;;;;;21.46;48.97;98864.34;1706517;82;21230;-81
2022/06/23 08:59:46;;;;;;;1.32;0.90;;;;;;;21.59;48.15;98856.77;1701411;83;21302;-81
2022/06/23 09:03:11;;;;;;;1.67;0.78;;;;;;;21.62;47.47;98865.94;1702102;84;21491;-81
2022/06/23 09:06:47;;;;;;;0.88;0.68;;;;;;;21.70;46.58;98865.92;1703039;84;21246;-80
2022/06/23 09:10:03;;;;;;;2.70;1.20;;;;;;;21.80;46.75;98869.22;1711781;82;21549;-81
2022/06/23 09:13:25;;;;;;;2.42;1.20;;;;;;;21.89;45.03;98870.30;1696564;84;21304;-81
2022/06/23 09:16:55;;;;;;;3.83;0.70;;;;;;;22.02;45.49;98879.96;1694961;84;21554;-81
2022/06/23 09:20:14;;;;;;;1.92;0.98;;;;;;;22.10;44.27;98889.95;1694791;84;21770;-81
2022/06/23 09:23:57;;;;;;;0.57;0.57;;;;;;;21.98;44.55;98892.25;1694538;84;21833;-81
2022/06/23 09:27:08;;;;;;;0.68;0.60;;;;;;;21.98;45.07;98899.21;1694423;84;22413;-81
2022/06/23 09:30:36;;;;;;;0.72;0.60;;;;;;;21.89;45.06;98899.53;1694519;84;21242;-81
2022/06/23 09:34:14;;;;;;;3.35;1.40;;;;;;;21.77;44.90;98903.18;1695468;84;21199;-81
2022/06/23 09:37:27;;;;;;;3.47;0.80;;;;;;;21.78;44.51;98911.80;1750993;81;21237;-81
2022/06/23 09:40:39;;;;;;;0.65;0.60;;;;;;;21.74;45.05;98910.16;1738408;82;21183;-82
2022/06/23 09:44:10;;;;;;;0.93;0.62;;;;;;;21.56;45.89;98906.03;1737436;82;21177;-81
2022/06/23 09:47:46;;;;;;;2.47;0.70;;;;;;;21.29;46.26;98906.89;1755503;81;21179;-81
2022/06/23 09:51:09;;;;;;;1.05;0.70;;;;;;;21.19;47.35;98906.34;1744730;81;21150;-81
2022/06/23 09:55:01;;;;;;;1.20;0.70;;;;;;;21.35;46.19;98909.40;1746058;81;21225;-81
2022/06/23 09:58:22;;;;;;;1.20;0.70;;;;;;;21.41;45.94;98908.30;1738531;81;21335;-80
2022/06/23 10:02:04;;;;;;;1.95;0.60;;;;;;;21.54;45.22;98910.20;1767220;81;21197;-80
2022/06/23 10:05:40;;;;;;;1.15;0.70;;;;;;;21.70;44.96;98916.02;1741425;82;21347;-79
2022/06/23 10:09:09;;;;;;;0.82;0.60;;;;;;;21.66;44.83;98915.73;1736423;82;21232;-77
2022/06/23 10:13:00;;;;;;;3.50;0.70;;;;;;;21.78;45.24;98928.49;1736782;82;21272;-79
2022/06/23 10:16:33;;;;;;;0.90;0.70;;;;;;;21.82;44.49;98925.42;1737991;82;21232;-79
2022/06/23 10:20:02;;;;;;;1.37;0.60;;;;;;;21.97;43.78;98922.58;1738669;82;21201;-79
2022/06/23 10:23:15;;;;;;;0.60;0.60;;;;;;;21.97;43.51;98929.53;1737696;82;21228;-79
2022/06/23 10:26:46;;;;;;;0.50;0.50;;;;;;;21.92;42.74;98943.47;1737194;82;21248;-79
2022/06/23 10:30:18;;;;;;;0.98;0.60;;;;;;;21.67;45.29;98936.05;1738169;82;21185;-80
2022/06/23 10:33:47;;;;;;;2.77;1.00;;;;;;;21.40;46.90;98934.42;1738960;82;21237;-79
2022/06/23 10:37:13;;;;;;;1.10;0.70;;;;;;;21.03;49.22;98940.81;1738701;82;21843;-79
2022/06/23 10:40:45;;;;;;;1.07;0.60;;;;;;;20.61;51.05;98933.58;1738371;82;21181;-79
2022/06/23 10:44:27;;;;;;;0.55;0.47;;;;;;;20.38;51.42;98927.38;1747980;81;21193;-80
2022/06/23 10:48:25;;;;;;;0.60;0.55;;;;;;;20.40;51.07;98935.43;1701562;84;21253;-79
2022/06/23 10:52:04;;;;;;;0.78;0.50;;;;;;;20.84;51.29;98937.75;1766559;81;21254;-79
2022/06/23 10:55:16;;;;;;;;;;;;;;;21.42;51.47;98946.67;1770051;81;21232;-79
2022/06/23 10:58:45;;;;;;;2.87;0.70;;;;;;;21.76;46.53;98940.48;1726290;83;20252;-80
2022/06/23 11:02:21;;;;;;;0.70;0.55;;;;;;;21.75;46.34;98945.22;1725639;81;21755;-80
2022/06/23 11:05:57;;;;;;;1.87;0.70;;;;;;;21.73;46.93;98947.43;1738723;82;21708;-80
2022/06/23 11:09:31;;;;;;;11.48;1.60;;;;;;;21.57;47.01;98952.20;1737594;82;21279;-79
2022/06/23 11:12:38;;;;;;;2.92;0.60;;;;;;;21.32;50.25;98961.43;1641022;86;21816;-79
2022/06/23 11:16:00;;;;;;;1.32;0.70;;;;;;;21.19;52.38;98972.52;1736965;82;21232;-78
2022/06/23 11:19:15;;;;;;;0.57;0.57;;;;;;;20.92;55.12;98969.16;1738697;82;21189;-80
2022/06/23 11:22:29;;;;;;;0.85;0.75;;;;;;;20.41;56.20;98977.36;1737065;82;21216;-79
2022/06/23 11:26:05;;;;;;;3.72;0.80;;;;;;;19.97;59.73;98988.84;1769290;81;21229;-79
2022/06/23 11:29:47;;;;;;;4.15;0.88;;;;;;;19.69;60.25;99008.66;1767898;81;21854;-79
2022/06/23 11:33:35;;;;;;;2.47;0.88;;;;;;;19.19;63.13;98992.72;1736646;82;21272;-79
2022/06/23 11:37:09;;;;;;;5.67;1.15;;;;;;;18.72;60.71;98997.55;1737192;82;21205;-78
2022/06/23 11:40:53;;;;;;;11.93;1.70;;;;;;;18.60;62.87;98997.68;1736811;82;21755;-78
2022/06/23 11:44:14;;;;;;;5.80;1.15;;;;;;;18.71;65.13;98997.27;1737796;82;21240;-79
2022/06/23 11:47:43;;;;;;;5.03;1.35;;;;;;;18.85;68.44;98994.91;1737381;82;22654;-79
2022/06/23 11:51:16;;;;;;;8.08;0.85;;;;;;;19.09;70.64;99001.78;1735723;82;21300;-79
2022/06/23 11:54:49;;;;;;;2.52;0.78;;;;;;;19.45;70.33;98997.92;1736453;82;21529;-79
2022/06/23 11:58:37;;;;;;;3.40;0.85;;;;;;;19.77;68.32;98999.84;1732263;82;21255;-78
2022/06/23 12:01:43;;;;;;;1.10;0.80;;;;;;;20.01;65.54;99008.58;1735597;82;21193;-78
2022/06/23 12:05:05;;;;;;;1.05;0.70;;;;;;;20.15;63.30;99025.86;1737206;82;21205;-78
2022/06/23 12:08:37;;;;;;;3.08;0.88;;;;;;;20.29;62.68;99019.81;1739809;81;21728;-78
2022/06/23 12:11:42;;;;;;;1.50;0.90;;;;;;;20.46;61.21;99019.03;1758395;81;21731;-78
2022/06/23 12:14:50;;;;;;;1.90;0.93;;;;;;;20.60;61.78;99021.61;1744503;80;21262;-78
2022/06/23 12:18:00;;;;;;;1.42;0.85;;;;;;;20.68;61.64;99033.58;1737190;82;21199;-78
2022/06/23 12:21:26;;;;;;;1.40;0.80;;;;;;;20.66;61.30;99026.09;1737332;82;21317;-78
2022/06/23 12:24:53;;;;;;;1.25;0.70;;;;;;;20.71;60.94;99028.61;1729604;81;21283;-78
2022/06/23 12:28:28;;;;;;;2.35;1.12;;;;;;;20.86;59.68;99018.91;1766203;81;21174;-78
2022/06/23 12:31:53;;;;;;;1.15;0.55;;;;;;;21.00;59.27;99028.95;1737866;82;21235;-78
2022/06/23 12:35:23;;;;;;;2.22;0.80;;;;;;;21.21;55.75;99014.50;1702635;84;21204;-78
2022/06/23 12:38:30;;;;;;;0.57;0.50;;;;;;;21.34;52.84;99021.77;1737783;82;21252;-78
2022/06/23 12:41:34;;;;;;;1.05;0.50;;;;;;;21.36;52.73;99020.08;1702194;84;21220;-78
2022/06/23 12:45:17;;;;;;;2.20;0.55;;;;;;;21.29;53.15;99021.73;1738011;82;21364;-78
2022/06/23 12:48:36;;;;;;;0.98;0.50;;;;;;;21.26;52.29;99024.23;1738091;82;21225;-78
2022/06/23 12:52:10;;;;;;;2.90;0.60;;;;;;;21.19;51.85;99014.22;1741840;81;21764;-78
2022/06/23 12:55:51;;;;;;;2.45;0.60;;;;;;;21.19;52.38;99019.78;1745292;81;21278;-78
2022/06/23 12:59:13;;;;;;;0.80;0.60;;;;;;;21.22;51.93;99035.09;1692851;83;21297;-78
2022/06/23 13:02:34;;;;;;;3.58;1.00;;;;;;;21.22;51.69;99040.66;1757350;81;21127;-78
2022/06/23 13:05:55;;;;;;;1.65;0.80;;;;;;;21.01;55.19;99056.45;1672058;86;21188;-77
2022/06/23 13:09:22;;;;;;;0.70;0.60;;;;;;;20.42;57.49;99065.97;1737860;82;21179;-78
2022/06/23 13:12:36;;;;;;;0.60;0.60;;;;;;;20.02;56.68;99065.75;1737819;81;21221;-78
2022/06/23 13:15:57;;;;;;;1.37;0.80;;;;;;;19.73;57.47;99077.21;1738011;81;21721;-78
2022/06/23 13:19:11;;;;;;;1.10;0.70;;;;;;;19.56;59.79;99067.60;1721207;81;21173;-78
2022/06/23 13:22:17;;;;;;;1.17;0.70;;;;;;;19.43;59.63;99051.96;1743796;81;21225;-78
2022/06/23 13:25:27;;;;;;;2.45;1.00;;;;;;;19.34;60.58;99047.48;1746132;81;21248;-78
2022/06/23 13:28:45;;;;;;;1.37;0.82;;;;;;;19.34;61.93;99047.48;1756843;81;21803;-77
2022/06/23 13:32:19;;;;;;;1.07;0.70;;;;;;;19.34;62.05;99053.02;1744472;81;21268;-78
2022/06/23 13:35:50;;;;;;;1.50;0.80;;;;;;;19.28;61.90;99049.89;1742165;81;21244;-78
2022/06/23 13:39:22;;;;;;;1.47;0.75;;;;;;;19.22;61.12;99049.58;1744649;81;21174;-78
2022/06/23 13:42:53;;;;;;;1.70;1.00;;;;;;;19.19;62.40;99047.31;1768949;81;21185;-78
2022/06/23 13:46:11;;;;;;;0.50;0.50;;;;;;;19.28;61.99;99044.35;1710616;82;21822;-78
2022/06/23 13:49:46;;;;;;;1.27;0.80;;;;;;;19.46;60.27;99047.28;1752577;81;21193;-77
2022/06/23 13:53:32;;;;;;;2.00;1.02;;;;;;;19.61;56.79;99040.48;1737315;82;21359;-77
2022/06/23 13:56:59;;;;;;;1.10;0.80;;;;;;;19.80;57.84;99038.95;1701298;84;21287;-77
2022/06/23 14:00:14;;;;;;;5.03;1.10;;;;;;;19.98;57.43;99039.63;1737830;82;21185;-77
2022/06/23 14:03:37;;;;;;;1.72;0.78;;;;;;;19.99;58.08;99036.58;1737845;82;21197;-80
2022/06/23 14:06:46;;;;;;;1.80;0.70;;;;;;;20.08;57.58;99030.80;1731925;82;21237;-80
2022/06/23 14:10:03;;;;;;;2.90;0.70;;;;;;;20.12;52.17;99036.09;1738299;82;21843;-79
2022/06/23 14:13:12;;;;;;;1.87;0.90;;;;;;;20.16;51.00;99035.02;1739360;81;21210;-78
2022/06/23 14:16:29;;;;;;;;;;;;;;;20.20;49.17;99035.31;1770023;81;21197;-78
2022/06/23 14:19:52;;;;;;;4.28;0.75;;;;;;;20.16;49.45;99032.23;1776850;80;20220;-78
2022/06/23 14:23:21;;;;;;;1.55;0.80;;;;;;;20.16;50.47;99033.07;1777086;80;21236;-78
2022/06/23 14:26:50;;;;;;;2.27;0.82;;;;;;;20.25;50.88;99027.02;1776409;80;21263;-79
2022/06/23 14:30:22;;;;;;;1.95;0.80;;;;;;;20.36;51.14;99031.49;1753357;80;21757;-79
2022/06/23 14:33:41;;;;;;;0.90;0.70;;;;;;;20.41;50.77;99041.23;1745574;82;21234;-79
2022/06/23 14:36:58;;;;;;;4.12;1.25;;;;;;;20.33;50.65;99035.66;1746235;82;21804;-79
2022/06/23 14:40:16;;;;;;;0.68;0.65;;;;;;;20.29;50.68;99047.58;1746000;82;21226;-79
2022/06/23 14:43:55;;;;;;;1.42;0.70;;;;;;;20.29;51.91;99040.08;1750557;80;21291;-79
2022/06/23 14:47:36;;;;;;;1.52;0.62;;;;;;;20.32;51.75;99042.30;1777092;80;21185;-79
2022/06/23 14:50:58;;;;;;;1.85;0.80;;;;;;;20.39;50.97;99040.68;1777046;80;21181;-79
2022/06/23 14:54:22;;;;;;;2.22;0.80;;;;;;;20.45;51.37;99038.20;1776345;80;21224;-78
2022/06/23 14:58:03;;;;;;;1.30;0.60;;;;;;;20.51;51.30;99036.30;1775903;80;21232;-79
2022/06/23 15:01:41;;;;;;;1.07;0.70;;;;;;;20.54;50.78;99042.16;1711680;83;21226;-79
2022/06/23 15:05:29;;;;;;;0.72;0.40;;;;;;;20.58;50.51;99039.11;1716526;83;21218;-79
2022/06/23 15:08:45;;;;;;;2.02;0.90;;;;;;;20.64;49.87;99044.12;1712070;83;21214;-78
2022/06/23 15:12:13;;;;;;;4.20;0.60;;;;;;;20.65;50.17;99041.09;1712077;83;21254;-78
2022/06/23 15:15:31;;;;;;;0.80;0.40;;;;;;;20.67;49.88;99044.42;1710778;83;21359;-78
2022/06/23 15:18:52;;;;;;;4.08;0.80;;;;;;;20.72;49.34;99049.72;1712730;83;21206;-78
2022/06/23 15:26:03;;;;;;;0.78;0.60;;;;;;;20.67;48.81;99052.76;1711044;83;21159;-78
2022/06/23 15:29:21;;;;;;;0.88;0.50;;;;;;;20.74;49.47;99064.98;1708315;83;21258;-78
2022/06/23 15:32:53;;;;;;;0.72;0.60;;;;;;;20.77;47.88;99068.63;1708492;83;21269;-78
2022/06/23 15:36:44;;;;;;;1.62;0.60;;;;;;;20.81;47.67;99072.53;1711729;83;21257;-79
2022/06/23 15:40:15;;;;;;;1.72;0.60;;;;;;;20.79;47.83;99073.90;1711871;83;21194;-79
2022/06/23 15:43:26;;;;;;;1.02;0.70;;;;;;;20.81;47.85;99080.03;1711687;83;21191;-78
2022/06/23 15:46:42;;;;;;;1.62;0.75;;;;;;;20.79;47.93;99076.67;1710343;83;21225;-78
2022/06/23 15:50:04;;;;;;;1.72;0.93;;;;;;;20.74;47.64;99071.11;1711555;83;21242;-80
2022/06/23 15:53:27;;;;;;;0.72;0.68;;;;;;;20.71;48.02;99075.28;1711857;83;21904;-79
2022/06/23 15:57:02;;;;;;;2.20;0.70;;;;;;;20.65;48.59;99078.60;1711591;83;21198;-78